sensor_id;sensor_type;location;lat;lon;timestamp;pressure;altitude;pressure_sealevel;temperature;humidity
65659;BME280;60181;53.258;6.932;2023-05-29T00:01:47;102663.35;;;16.12;53.79
65659;BME280;60181;53.258;6.932;2023-05-29T00:05:51;102666.30;;;16.09;53.76
65659;BME280;60181;53.258;6.932;2023-05-29T00:09:56;102669.07;;;16.07;53.66
65659;BME280;60181;53.258;6.932;2023-05-29T00:13:59;102671.06;;;16.05;53.25
65659;BME280;60181;53.258;6.932;2023-05-29T00:18:04;102672.55;;;16.03;53.38
65659;BME280;60181;53.258;6.932;2023-05-29T00:22:07;102675.23;;;16.02;53.26
65659;BME280;60181;53.258;6.932;2023-05-29T00:26:11;102676.11;;;16.00;53.37
65659;BME280;60181;53.258;6.932;2023-05-29T00:30:15;102676.93;;;16.00;53.10
65659;BME280;60181;53.258;6.932;2023-05-29T00:34:19;102677.31;;;16.00;52.97
65659;BME280;60181;53.258;6.932;2023-05-29T00:38:23;102678.09;;;16.00;53.14
65659;BME280;60181;53.258;6.932;2023-05-29T00:42:27;102678.47;;;16.00;53.08
65659;BME280;60181;53.258;6.932;2023-05-29T00:46:32;102680.08;;;16.00;53.03
65659;BME280;60181;53.258;6.932;2023-05-29T00:50:35;102681.73;;;16.01;52.92
65659;BME280;60181;53.258;6.932;2023-05-29T00:54:42;102685.12;;;16.01;53.13
65659;BME280;60181;53.258;6.932;2023-05-29T00:58:43;102688.17;;;16.00;53.20
65659;BME280;60181;53.258;6.932;2023-05-29T01:02:47;102691.81;;;16.01;53.20
65659;BME280;60181;53.258;6.932;2023-05-29T01:06:51;102694.49;;;16.00;53.32
65659;BME280;60181;53.258;6.932;2023-05-29T01:10:56;102697.97;;;16.00;53.36
65659;BME280;60181;53.258;6.932;2023-05-29T01:27:11;102705.37;;;15.99;53.43
65659;BME280;60181;53.258;6.932;2023-05-29T01:31:19;102709.47;;;15.98;53.46
65659;BME280;60181;53.258;6.932;2023-05-29T01:35:19;102710.74;;;15.96;53.40
65659;BME280;60181;53.258;6.932;2023-05-29T01:39:23;102710.03;;;15.95;53.33
65659;BME280;60181;53.258;6.932;2023-05-29T01:43:27;102708.80;;;15.95;53.34
65659;BME280;60181;53.258;6.932;2023-05-29T01:47:31;102706.20;;;15.94;53.45
65659;BME280;60181;53.258;6.932;2023-05-29T01:51:35;102706.20;;;15.94;53.32
65659;BME280;60181;53.258;6.932;2023-05-29T01:55:39;102708.02;;;15.94;53.25
65659;BME280;60181;53.258;6.932;2023-05-29T01:59:43;102709.92;;;15.94;53.26
65659;BME280;60181;53.258;6.932;2023-05-29T02:03:47;102710.79;;;15.93;53.26
65659;BME280;60181;53.258;6.932;2023-05-29T02:07:51;102711.45;;;15.93;53.20
65659;BME280;60181;53.258;6.932;2023-05-29T02:11:55;102713.35;;;15.93;53.14
65659;BME280;60181;53.258;6.932;2023-05-29T02:15:59;102715.47;;;15.92;53.05
65659;BME280;60181;53.258;6.932;2023-05-29T02:20:04;102718.68;;;15.91;52.96
65659;BME280;60181;53.258;6.932;2023-05-29T02:24:07;102719.63;;;15.90;52.62
65659;BME280;60181;53.258;6.932;2023-05-29T02:28:11;102718.52;;;15.90;52.58
65659;BME280;60181;53.258;6.932;2023-05-29T02:32:15;102717.82;;;15.89;52.51
65659;BME280;60181;53.258;6.932;2023-05-29T02:36:19;102718.40;;;15.89;52.56
65659;BME280;60181;53.258;6.932;2023-05-29T02:40:23;102719.89;;;15.88;52.33
65659;BME280;60181;53.258;6.932;2023-05-29T02:44:27;102719.47;;;15.90;52.16
65659;BME280;60181;53.258;6.932;2023-05-29T02:48:31;102718.90;;;15.91;52.24
65659;BME280;60181;53.258;6.932;2023-05-29T02:52:35;102718.85;;;15.92;52.61
65659;BME280;60181;53.258;6.932;2023-05-29T02:56:39;102718.71;;;15.97;51.96
65659;BME280;60181;53.258;6.932;2023-05-29T03:00:43;102718.64;;;15.97;52.15
65659;BME280;60181;53.258;6.932;2023-05-29T03:04:47;102717.61;;;15.96;52.24
65659;BME280;60181;53.258;6.932;2023-05-29T03:08:51;102715.66;;;15.95;52.17
65659;BME280;60181;53.258;6.932;2023-05-29T03:12:55;102714.70;;;15.96;52.16
65659;BME280;60181;53.258;6.932;2023-05-29T03:16:59;102714.86;;;16.05;51.37
65659;BME280;60181;53.258;6.932;2023-05-29T03:21:03;102714.28;;;16.10;51.56
65659;BME280;60181;53.258;6.932;2023-05-29T03:25:07;102714.11;;;16.11;51.36
65659;BME280;60181;53.258;6.932;2023-05-29T03:29:11;102713.00;;;16.11;51.38
65659;BME280;60181;53.258;6.932;2023-05-29T03:33:15;102712.66;;;16.11;51.05
65659;BME280;60181;53.258;6.932;2023-05-29T03:37:19;102712.55;;;16.10;51.31
65659;BME280;60181;53.258;6.932;2023-05-29T03:41:23;102713.71;;;16.10;51.46
65659;BME280;60181;53.258;6.932;2023-05-29T03:45:27;102714.78;;;16.10;51.33
65659;BME280;60181;53.258;6.932;2023-05-29T03:49:31;102715.11;;;16.10;51.23
65659;BME280;60181;53.258;6.932;2023-05-29T03:53:35;102717.09;;;16.09;51.04
65659;BME280;60181;53.258;6.932;2023-05-29T03:57:39;102718.58;;;16.08;51.07
65659;BME280;60181;53.258;6.932;2023-05-29T04:01:43;102719.96;;;16.07;51.06
65659;BME280;60181;53.258;6.932;2023-05-29T04:05:47;102721.34;;;16.06;51.02
65659;BME280;60181;53.258;6.932;2023-05-29T04:09:51;102723.88;;;16.05;50.75
65659;BME280;60181;53.258;6.932;2023-05-29T04:13:55;102726.60;;;16.05;50.65
65659;BME280;60181;53.258;6.932;2023-05-29T04:17:59;102728.00;;;16.08;50.32
65659;BME280;60181;53.258;6.932;2023-05-29T04:22:03;102728.63;;;16.09;50.61
65659;BME280;60181;53.258;6.932;2023-05-29T04:26:07;102731.59;;;16.08;50.39
65659;BME280;60181;53.258;6.932;2023-05-29T04:30:11;102734.45;;;16.07;50.54
65659;BME280;60181;53.258;6.932;2023-05-29T04:34:15;102735.40;;;16.07;50.45
65659;BME280;60181;53.258;6.932;2023-05-29T04:38:19;102737.51;;;16.07;50.43
65659;BME280;60181;53.258;6.932;2023-05-29T04:42:23;102739.45;;;16.08;50.26
65659;BME280;60181;53.258;6.932;2023-05-29T04:46:27;102740.98;;;16.09;49.89
65659;BME280;60181;53.258;6.932;2023-05-29T04:50:31;102744.82;;;16.11;50.00
65659;BME280;60181;53.258;6.932;2023-05-29T04:54:35;102749.33;;;16.11;49.41
65659;BME280;60181;53.258;6.932;2023-05-29T04:58:40;102751.94;;;16.11;49.28
65659;BME280;60181;53.258;6.932;2023-05-29T05:02:43;102753.25;;;16.10;49.15
65659;BME280;60181;53.258;6.932;2023-05-29T05:06:47;102754.00;;;16.11;49.38
65659;BME280;60181;53.258;6.932;2023-05-29T05:10:51;102755.03;;;16.12;49.39
65659;BME280;60181;53.258;6.932;2023-05-29T05:14:55;102756.80;;;16.13;49.44
65659;BME280;60181;53.258;6.932;2023-05-29T05:18:59;102758.92;;;16.12;49.17
65659;BME280;60181;53.258;6.932;2023-05-29T05:23:03;102760.56;;;16.11;49.66
65659;BME280;60181;53.258;6.932;2023-05-29T05:27:07;102762.06;;;16.11;49.68
65659;BME280;60181;53.258;6.932;2023-05-29T05:31:11;102764.09;;;16.11;49.45
65659;BME280;60181;53.258;6.932;2023-05-29T05:35:15;102765.03;;;16.11;49.48
65659;BME280;60181;53.258;6.932;2023-05-29T05:39:19;102766.94;;;16.12;49.59
65659;BME280;60181;53.258;6.932;2023-05-29T05:43:23;102768.21;;;16.14;49.54
65659;BME280;60181;53.258;6.932;2023-05-29T05:47:27;102768.92;;;16.15;49.61
65659;BME280;60181;53.258;6.932;2023-05-29T05:51:31;102769.96;;;16.16;49.68
65659;BME280;60181;53.258;6.932;2023-05-29T05:55:35;102771.24;;;16.16;49.56
65659;BME280;60181;53.258;6.932;2023-05-29T05:59:39;102771.89;;;16.17;49.74
65659;BME280;60181;53.258;6.932;2023-05-29T06:03:43;102771.94;;;16.18;49.91
65659;BME280;60181;53.258;6.932;2023-05-29T06:07:47;102774.21;;;16.19;49.74
65659;BME280;60181;53.258;6.932;2023-05-29T06:11:51;102775.68;;;16.21;50.30
65659;BME280;60181;53.258;6.932;2023-05-29T06:15:55;102777.29;;;16.25;50.47
65659;BME280;60181;53.258;6.932;2023-05-29T06:19:59;102778.75;;;16.25;50.76
65659;BME280;60181;53.258;6.932;2023-05-29T06:24:03;102780.40;;;16.25;50.81
65659;BME280;60181;53.258;6.932;2023-05-29T06:28:07;102782.71;;;16.25;50.65
65659;BME280;60181;53.258;6.932;2023-05-29T06:32:11;102786.93;;;16.25;50.54
65659;BME280;60181;53.258;6.932;2023-05-29T06:36:15;102792.54;;;16.25;50.26
65659;BME280;60181;53.258;6.932;2023-05-29T06:40:19;102796.47;;;16.24;50.66
65659;BME280;60181;53.258;6.932;2023-05-29T06:44:23;102801.78;;;16.22;50.91
65659;BME280;60181;53.258;6.932;2023-05-29T06:48:27;102809.42;;;16.21;50.69
65659;BME280;60181;53.258;6.932;2023-05-29T06:52:31;102814.72;;;16.21;50.17
65659;BME280;60181;53.258;6.932;2023-05-29T06:56:35;102818.43;;;16.28;49.65
65659;BME280;60181;53.258;6.932;2023-05-29T07:00:39;102822.14;;;16.36;49.54
65659;BME280;60181;53.258;6.932;2023-05-29T07:04:43;102823.07;;;16.53;49.22
65659;BME280;60181;53.258;6.932;2023-05-29T07:08:47;102824.79;;;16.74;48.77
65659;BME280;60181;53.258;6.932;2023-05-29T07:12:51;102825.54;;;16.93;48.70
65659;BME280;60181;53.258;6.932;2023-05-29T07:16:55;102825.95;;;17.10;48.77
65659;BME280;60181;53.258;6.932;2023-05-29T07:20:59;102827.22;;;17.24;48.85
65659;BME280;60181;53.258;6.932;2023-05-29T07:25:03;102829.57;;;17.35;49.01
65659;BME280;60181;53.258;6.932;2023-05-29T07:29:07;102831.99;;;17.45;50.70
65659;BME280;60181;53.258;6.932;2023-05-29T07:33:11;102834.25;;;17.62;53.78
65659;BME280;60181;53.258;6.932;2023-05-29T07:37:15;102834.86;;;17.77;53.64
65659;BME280;60181;53.258;6.932;2023-05-29T07:41:19;102835.69;;;17.94;53.21
65659;BME280;60181;53.258;6.932;2023-05-29T07:45:23;102835.40;;;18.08;53.33
65659;BME280;60181;53.258;6.932;2023-05-29T07:49:27;102836.60;;;18.20;53.39
65659;BME280;60181;53.258;6.932;2023-05-29T07:53:31;102838.16;;;18.32;53.31
65659;BME280;60181;53.258;6.932;2023-05-29T07:57:35;102840.41;;;18.44;53.23
65659;BME280;60181;53.258;6.932;2023-05-29T08:01:39;102843.04;;;18.53;53.33
65659;BME280;60181;53.258;6.932;2023-05-29T08:05:43;102844.02;;;18.60;53.51
65659;BME280;60181;53.258;6.932;2023-05-29T08:09:47;102844.71;;;18.65;53.81
65659;BME280;60181;53.258;6.932;2023-05-29T08:13:51;102845.37;;;18.68;53.59
65659;BME280;60181;53.258;6.932;2023-05-29T08:17:55;102846.37;;;18.68;53.71
65659;BME280;60181;53.258;6.932;2023-05-29T08:21:59;102848.43;;;18.67;53.57
65659;BME280;60181;53.258;6.932;2023-05-29T08:26:03;102851.01;;;18.65;53.57
65659;BME280;60181;53.258;6.932;2023-05-29T08:30:07;102854.28;;;18.62;53.65
65659;BME280;60181;53.258;6.932;2023-05-29T08:34:11;102855.47;;;18.60;53.48
65659;BME280;60181;53.258;6.932;2023-05-29T08:38:15;102857.57;;;18.58;53.50
65659;BME280;60181;53.258;6.932;2023-05-29T08:42:24;102860.16;;;18.56;53.48
65659;BME280;60181;53.258;6.932;2023-05-29T08:46:23;102863.66;;;18.54;53.51
65659;BME280;60181;53.258;6.932;2023-05-29T08:50:27;102866.83;;;18.51;53.63
65659;BME280;60181;53.258;6.932;2023-05-29T08:54:31;102868.76;;;18.49;53.46
65659;BME280;60181;53.258;6.932;2023-05-29T08:58:35;102869.96;;;18.47;53.29
65659;BME280;60181;53.258;6.932;2023-05-29T09:02:39;102870.39;;;18.48;53.26
65659;BME280;60181;53.258;6.932;2023-05-29T09:06:43;102871.47;;;18.48;53.29
65659;BME280;60181;53.258;6.932;2023-05-29T09:10:47;102872.75;;;18.49;53.14
65659;BME280;60181;53.258;6.932;2023-05-29T09:14:51;102874.83;;;18.50;53.24
65659;BME280;60181;53.258;6.932;2023-05-29T09:19:06;102875.40;;;18.50;53.10
65659;BME280;60181;53.258;6.932;2023-05-29T09:22:59;102875.77;;;18.50;53.24
65659;BME280;60181;53.258;6.932;2023-05-29T09:27:03;102876.10;;;18.51;53.01
65659;BME280;60181;53.258;6.932;2023-05-29T09:31:13;102875.79;;;18.51;53.04
65659;BME280;60181;53.258;6.932;2023-05-29T09:35:11;102876.29;;;18.52;52.96
65659;BME280;60181;53.258;6.932;2023-05-29T09:39:15;102875.34;;;18.52;53.03
65659;BME280;60181;53.258;6.932;2023-05-29T09:43:19;102875.24;;;18.53;53.05
65659;BME280;60181;53.258;6.932;2023-05-29T09:47:23;102875.28;;;18.54;52.91
65659;BME280;60181;53.258;6.932;2023-05-29T09:51:27;102875.93;;;18.55;52.89
65659;BME280;60181;53.258;6.932;2023-05-29T09:55:31;102876.95;;;18.57;52.86
65659;BME280;60181;53.258;6.932;2023-05-29T09:59:35;102876.65;;;18.58;52.93
65659;BME280;60181;53.258;6.932;2023-05-29T10:03:39;102875.82;;;18.59;52.92
65659;BME280;60181;53.258;6.932;2023-05-29T10:07:43;102874.18;;;18.60;52.94
65659;BME280;60181;53.258;6.932;2023-05-29T10:11:47;102873.47;;;18.61;52.90
65659;BME280;60181;53.258;6.932;2023-05-29T10:15:51;102872.97;;;18.61;52.99
65659;BME280;60181;53.258;6.932;2023-05-29T10:19:55;102872.31;;;18.60;53.11
65659;BME280;60181;53.258;6.932;2023-05-29T10:23:58;102872.06;;;18.61;53.05
65659;BME280;60181;53.258;6.932;2023-05-29T10:28:02;102870.48;;;18.60;53.08
65659;BME280;60181;53.258;6.932;2023-05-29T10:36:14;102872.23;;;18.60;53.31
65659;BME280;60181;53.258;6.932;2023-05-29T10:40:14;102872.95;;;18.59;53.97
65659;BME280;60181;53.258;6.932;2023-05-29T10:52:30;102871.84;;;18.58;54.01
65659;BME280;60181;53.258;6.932;2023-05-29T10:56:30;102871.44;;;18.57;54.07
65659;BME280;60181;53.258;6.932;2023-05-29T11:00:39;102871.91;;;18.54;54.10
65659;BME280;60181;53.258;6.932;2023-05-29T11:04:38;102872.84;;;18.53;54.15
65659;BME280;60181;53.258;6.932;2023-05-29T11:08:46;102871.98;;;18.51;54.13
65659;BME280;60181;53.258;6.932;2023-05-29T11:12:55;102870.43;;;18.49;54.21
65659;BME280;60181;53.258;6.932;2023-05-29T11:16:50;102869.96;;;18.47;54.17
65659;BME280;60181;53.258;6.932;2023-05-29T11:20:57;102869.09;;;18.46;54.03
65659;BME280;60181;53.258;6.932;2023-05-29T11:24:59;102867.65;;;18.45;54.13
65659;BME280;60181;53.258;6.932;2023-05-29T11:29:03;102869.52;;;18.44;54.12
65659;BME280;60181;53.258;6.932;2023-05-29T11:33:06;102870.02;;;18.43;54.02
65659;BME280;60181;53.258;6.932;2023-05-29T11:37:11;102869.36;;;18.43;53.96
65659;BME280;60181;53.258;6.932;2023-05-29T11:41:16;102869.74;;;18.43;54.04
65659;BME280;60181;53.258;6.932;2023-05-29T11:45:19;102870.24;;;18.43;53.95
65659;BME280;60181;53.258;6.932;2023-05-29T11:49:32;102870.24;;;18.43;54.16
65659;BME280;60181;53.258;6.932;2023-05-29T11:53:26;102869.71;;;18.42;54.15
65659;BME280;60181;53.258;6.932;2023-05-29T11:57:30;102869.93;;;18.41;54.07
65659;BME280;60181;53.258;6.932;2023-05-29T12:01:34;102868.85;;;18.40;53.93
65659;BME280;60181;53.258;6.932;2023-05-29T12:05:45;102868.24;;;18.39;54.04
65659;BME280;60181;53.258;6.932;2023-05-29T12:09:42;102870.36;;;18.38;54.08
65659;BME280;60181;53.258;6.932;2023-05-29T12:13:54;102870.91;;;18.37;53.99
65659;BME280;60181;53.258;6.932;2023-05-29T12:17:51;102871.00;;;18.37;54.10
65659;BME280;60181;53.258;6.932;2023-05-29T12:21:54;102870.50;;;18.37;54.10
65659;BME280;60181;53.258;6.932;2023-05-29T12:25:58;102870.47;;;18.36;54.10
65659;BME280;60181;53.258;6.932;2023-05-29T12:30:03;102871.68;;;18.35;54.19
65659;BME280;60181;53.258;6.932;2023-05-29T12:34:10;102874.00;;;18.35;54.13
65659;BME280;60181;53.258;6.932;2023-05-29T12:38:10;102873.75;;;18.35;54.13
65659;BME280;60181;53.258;6.932;2023-05-29T12:42:16;102874.38;;;18.34;54.19
65659;BME280;60181;53.258;6.932;2023-05-29T12:46:18;102874.88;;;18.34;54.21
65659;BME280;60181;53.258;6.932;2023-05-29T12:50:23;102873.86;;;18.32;54.27
65659;BME280;60181;53.258;6.932;2023-05-29T12:54:26;102875.49;;;18.32;54.39
65659;BME280;60181;53.258;6.932;2023-05-29T12:58:30;102874.07;;;18.31;54.43
65659;BME280;60181;53.258;6.932;2023-05-29T13:02:34;102873.54;;;18.31;54.31
65659;BME280;60181;53.258;6.932;2023-05-29T13:06:38;102872.71;;;18.30;54.42
65659;BME280;60181;53.258;6.932;2023-05-29T13:10:44;102871.02;;;18.30;54.48
65659;BME280;60181;53.258;6.932;2023-05-29T13:14:46;102870.86;;;18.29;54.56
65659;BME280;60181;53.258;6.932;2023-05-29T13:18:50;102869.82;;;18.28;54.56
65659;BME280;60181;53.258;6.932;2023-05-29T13:22:54;102870.74;;;18.28;54.56
65659;BME280;60181;53.258;6.932;2023-05-29T13:26:58;102870.32;;;18.28;54.66
65659;BME280;60181;53.258;6.932;2023-05-29T13:31:02;102869.96;;;18.27;54.73
65659;BME280;60181;53.258;6.932;2023-05-29T13:35:07;102868.19;;;18.26;54.70
65659;BME280;60181;53.258;6.932;2023-05-29T13:39:10;102868.02;;;18.26;55.16
65659;BME280;60181;53.258;6.932;2023-05-29T13:43:14;102868.38;;;18.27;55.02
65659;BME280;60181;53.258;6.932;2023-05-29T13:47:18;102869.19;;;18.26;55.11
65659;BME280;60181;53.258;6.932;2023-05-29T13:51:22;102868.60;;;18.26;55.11
65659;BME280;60181;53.258;6.932;2023-05-29T13:55:26;102870.14;;;18.25;55.10
65659;BME280;60181;53.258;6.932;2023-05-29T13:59:30;102871.11;;;18.24;55.14
65659;BME280;60181;53.258;6.932;2023-05-29T14:03:34;102872.41;;;18.23;55.15
65659;BME280;60181;53.258;6.932;2023-05-29T14:07:38;102873.12;;;18.22;55.08
65659;BME280;60181;53.258;6.932;2023-05-29T14:11:42;102874.61;;;18.21;55.13
65659;BME280;60181;53.258;6.932;2023-05-29T14:15:46;102874.26;;;18.21;55.12
65659;BME280;60181;53.258;6.932;2023-05-29T14:19:50;102873.34;;;18.21;55.08
65659;BME280;60181;53.258;6.932;2023-05-29T14:23:54;102874.40;;;18.20;55.11
65659;BME280;60181;53.258;6.932;2023-05-29T14:27:58;102875.57;;;18.20;55.08
65659;BME280;60181;53.258;6.932;2023-05-29T14:32:02;102874.62;;;18.19;55.14
65659;BME280;60181;53.258;6.932;2023-05-29T14:36:06;102872.77;;;18.19;55.15
65659;BME280;60181;53.258;6.932;2023-05-29T14:40:10;102874.01;;;18.18;55.10
65659;BME280;60181;53.258;6.932;2023-05-29T14:44:14;102872.69;;;18.18;55.12
65659;BME280;60181;53.258;6.932;2023-05-29T14:48:18;102871.74;;;18.17;55.14
65659;BME280;60181;53.258;6.932;2023-05-29T14:52:22;102872.00;;;18.17;55.11
65659;BME280;60181;53.258;6.932;2023-05-29T14:56:26;102871.55;;;18.16;55.13
65659;BME280;60181;53.258;6.932;2023-05-29T15:00:30;102872.25;;;18.15;55.17
65659;BME280;60181;53.258;6.932;2023-05-29T15:04:34;102872.42;;;18.15;55.05
65659;BME280;60181;53.258;6.932;2023-05-29T15:08:39;102872.81;;;18.14;55.09
65659;BME280;60181;53.258;6.932;2023-05-29T15:12:42;102874.05;;;18.14;55.01
65659;BME280;60181;53.258;6.932;2023-05-29T15:16:46;102875.62;;;18.13;55.11
65659;BME280;60181;53.258;6.932;2023-05-29T15:20:50;102876.92;;;18.13;55.14
65659;BME280;60181;53.258;6.932;2023-05-29T15:24:54;102879.58;;;18.13;55.77
65659;BME280;60181;53.258;6.932;2023-05-29T15:28:58;102877.03;;;18.14;55.41
65659;BME280;60181;53.258;6.932;2023-05-29T15:33:02;102876.73;;;18.15;55.51
65659;BME280;60181;53.258;6.932;2023-05-29T15:37:06;102877.81;;;18.15;55.52
65659;BME280;60181;53.258;6.932;2023-05-29T15:41:10;102875.66;;;18.14;55.58
65659;BME280;60181;53.258;6.932;2023-05-29T15:45:14;102876.54;;;18.14;55.60
65659;BME280;60181;53.258;6.932;2023-05-29T15:49:18;102877.09;;;18.13;55.74
65659;BME280;60181;53.258;6.932;2023-05-29T15:53:22;102878.05;;;18.12;55.68
65659;BME280;60181;53.258;6.932;2023-05-29T15:57:26;102877.69;;;18.11;55.62
65659;BME280;60181;53.258;6.932;2023-05-29T16:01:30;102879.02;;;18.10;55.57
65659;BME280;60181;53.258;6.932;2023-05-29T16:05:34;102881.21;;;18.09;55.66
65659;BME280;60181;53.258;6.932;2023-05-29T16:09:38;102884.12;;;18.09;55.66
65659;BME280;60181;53.258;6.932;2023-05-29T16:13:42;102884.91;;;18.08;55.71
65659;BME280;60181;53.258;6.932;2023-05-29T16:17:46;102886.54;;;18.07;55.66
65659;BME280;60181;53.258;6.932;2023-05-29T16:21:50;102888.00;;;18.06;55.54
65659;BME280;60181;53.258;6.932;2023-05-29T16:25:54;102889.49;;;18.06;55.52
65659;BME280;60181;53.258;6.932;2023-05-29T16:29:58;102888.88;;;18.05;55.54
65659;BME280;60181;53.258;6.932;2023-05-29T16:34:02;102888.77;;;18.04;55.53
65659;BME280;60181;53.258;6.932;2023-05-29T16:38:06;102888.77;;;18.04;55.56
65659;BME280;60181;53.258;6.932;2023-05-29T16:42:10;102888.73;;;18.03;55.54
65659;BME280;60181;53.258;6.932;2023-05-29T16:46:14;102889.56;;;18.03;55.60
65659;BME280;60181;53.258;6.932;2023-05-29T16:50:18;102890.44;;;18.02;55.61
65659;BME280;60181;53.258;6.932;2023-05-29T16:54:22;102891.19;;;18.01;55.55
65659;BME280;60181;53.258;6.932;2023-05-29T16:58:26;102890.69;;;18.01;55.65
65659;BME280;60181;53.258;6.932;2023-05-29T17:02:30;102890.58;;;18.00;55.74
65659;BME280;60181;53.258;6.932;2023-05-29T17:06:34;102890.12;;;17.99;55.74
65659;BME280;60181;53.258;6.932;2023-05-29T17:10:38;102888.29;;;17.99;55.74
65659;BME280;60181;53.258;6.932;2023-05-29T17:14:42;102886.28;;;17.98;55.73
65659;BME280;60181;53.258;6.932;2023-05-29T17:18:46;102883.37;;;17.98;55.74
65659;BME280;60181;53.258;6.932;2023-05-29T17:22:50;102882.09;;;17.97;55.81
65659;BME280;60181;53.258;6.932;2023-05-29T17:26:54;102880.74;;;17.97;55.81
65659;BME280;60181;53.258;6.932;2023-05-29T17:30:58;102880.48;;;17.97;55.82
65659;BME280;60181;53.258;6.932;2023-05-29T17:35:02;102880.46;;;17.96;55.88
65659;BME280;60181;53.258;6.932;2023-05-29T17:39:06;102881.99;;;17.95;55.91
65659;BME280;60181;53.258;6.932;2023-05-29T17:43:10;102883.20;;;17.93;56.00
65659;BME280;60181;53.258;6.932;2023-05-29T17:47:14;102885.00;;;17.92;55.93
65659;BME280;60181;53.258;6.932;2023-05-29T17:51:18;102887.65;;;17.92;55.93
65659;BME280;60181;53.258;6.932;2023-05-29T17:55:22;102888.32;;;17.92;55.87
65659;BME280;60181;53.258;6.932;2023-05-29T17:59:26;102888.94;;;17.91;56.07
65659;BME280;60181;53.258;6.932;2023-05-29T18:03:30;102889.73;;;17.90;56.05
65659;BME280;60181;53.258;6.932;2023-05-29T18:07:34;102889.67;;;17.88;56.11
65659;BME280;60181;53.258;6.932;2023-05-29T18:11:38;102890.25;;;17.88;56.10
65659;BME280;60181;53.258;6.932;2023-05-29T18:15:42;102891.13;;;17.87;56.16
65659;BME280;60181;53.258;6.932;2023-05-29T18:19:46;102891.33;;;17.85;56.17
65659;BME280;60181;53.258;6.932;2023-05-29T18:23:50;102891.31;;;17.85;56.20
65659;BME280;60181;53.258;6.932;2023-05-29T18:27:54;102890.44;;;17.83;56.31
65659;BME280;60181;53.258;6.932;2023-05-29T18:31:58;102890.66;;;17.82;56.32
65659;BME280;60181;53.258;6.932;2023-05-29T18:36:02;102891.70;;;17.81;56.33
65659;BME280;60181;53.258;6.932;2023-05-29T18:40:06;102893.15;;;17.80;56.41
65659;BME280;60181;53.258;6.932;2023-05-29T18:44:10;102893.01;;;17.78;56.47
65659;BME280;60181;53.258;6.932;2023-05-29T18:48:14;102892.55;;;17.77;56.45
65659;BME280;60181;53.258;6.932;2023-05-29T18:52:18;102893.92;;;17.75;56.51
65659;BME280;60181;53.258;6.932;2023-05-29T18:56:22;102895.26;;;17.74;56.56
65659;BME280;60181;53.258;6.932;2023-05-29T19:00:26;102895.15;;;17.73;56.56
65659;BME280;60181;53.258;6.932;2023-05-29T19:04:30;102894.20;;;17.71;56.64
65659;BME280;60181;53.258;6.932;2023-05-29T19:08:34;102891.52;;;17.70;56.72
65659;BME280;60181;53.258;6.932;2023-05-29T19:12:38;102890.28;;;17.68;56.72
65659;BME280;60181;53.258;6.932;2023-05-29T19:16:42;102890.00;;;17.67;56.76
65659;BME280;60181;53.258;6.932;2023-05-29T19:20:46;102890.63;;;17.66;56.79
65659;BME280;60181;53.258;6.932;2023-05-29T19:24:50;102890.22;;;17.64;56.83
65659;BME280;60181;53.258;6.932;2023-05-29T19:28:54;102890.61;;;17.63;56.87
65659;BME280;60181;53.258;6.932;2023-05-29T19:32:58;102891.15;;;17.61;56.91
65659;BME280;60181;53.258;6.932;2023-05-29T19:37:02;102892.69;;;17.60;56.92
65659;BME280;60181;53.258;6.932;2023-05-29T19:41:06;102894.64;;;17.59;56.97
65659;BME280;60181;53.258;6.932;2023-05-29T19:45:10;102897.50;;;17.58;57.04
65659;BME280;60181;53.258;6.932;2023-05-29T19:49:14;102898.38;;;17.56;57.02
65659;BME280;60181;53.258;6.932;2023-05-29T19:53:18;102899.01;;;17.55;57.06
65659;BME280;60181;53.258;6.932;2023-05-29T19:57:22;102899.96;;;17.54;57.12
65659;BME280;60181;53.258;6.932;2023-05-29T20:01:26;102900.27;;;17.53;57.14
65659;BME280;60181;53.258;6.932;2023-05-29T20:05:30;102900.48;;;17.53;57.16
65659;BME280;60181;53.258;6.932;2023-05-29T20:09:34;102900.94;;;17.52;57.17
65659;BME280;60181;53.258;6.932;2023-05-29T20:13:38;102903.83;;;17.51;57.21
65659;BME280;60181;53.258;6.932;2023-05-29T20:17:42;102905.70;;;17.50;57.25
65659;BME280;60181;53.258;6.932;2023-05-29T20:21:46;102904.86;;;17.52;57.33
65659;BME280;60181;53.258;6.932;2023-05-29T20:25:50;102905.54;;;17.55;57.05
65659;BME280;60181;53.258;6.932;2023-05-29T20:29:54;102905.83;;;17.56;57.57
65659;BME280;60181;53.258;6.932;2023-05-29T20:33:58;102908.58;;;17.57;57.74
65659;BME280;60181;53.258;6.932;2023-05-29T20:38:02;102910.56;;;17.57;57.80
65659;BME280;60181;53.258;6.932;2023-05-29T20:42:06;102911.39;;;17.57;57.80
65659;BME280;60181;53.258;6.932;2023-05-29T20:46:10;102911.85;;;17.56;57.78
65659;BME280;60181;53.258;6.932;2023-05-29T20:50:14;102911.44;;;17.55;57.71
65659;BME280;60181;53.258;6.932;2023-05-29T20:54:18;102913.22;;;17.55;57.72
65659;BME280;60181;53.258;6.932;2023-05-29T20:58:22;102913.55;;;17.54;57.71
65659;BME280;60181;53.258;6.932;2023-05-29T21:02:26;102914.51;;;17.54;57.71
65659;BME280;60181;53.258;6.932;2023-05-29T21:06:30;102914.18;;;17.53;57.71
65659;BME280;60181;53.258;6.932;2023-05-29T21:10:34;102914.64;;;17.53;57.71
65659;BME280;60181;53.258;6.932;2023-05-29T21:14:38;102913.32;;;17.52;57.71
65659;BME280;60181;53.258;6.932;2023-05-29T21:18:42;102913.78;;;17.51;57.67
65659;BME280;60181;53.258;6.932;2023-05-29T21:22:46;102914.94;;;17.51;57.71
65659;BME280;60181;53.258;6.932;2023-05-29T21:26:50;102913.75;;;17.50;57.67
65659;BME280;60181;53.258;6.932;2023-05-29T21:30:54;102914.16;;;17.50;57.64
65659;BME280;60181;53.258;6.932;2023-05-29T21:34:58;102913.40;;;17.50;57.64
65659;BME280;60181;53.258;6.932;2023-05-29T21:39:02;102911.05;;;17.51;57.91